sensor_id;sensor_type;location;lat;lon;timestamp;P1;durP1;ratioP1;P2;durP2;ratioP2
842;SDS011;407;48.884;9.126;2023-05-29T00:02:08;10.57;;;4.55;;
842;SDS011;407;48.884;9.126;2023-05-29T00:04:33;11.65;;;4.78;;
842;SDS011;407;48.884;9.126;2023-05-29T00:06:59;14.00;;;4.97;;
842;SDS011;407;48.884;9.126;2023-05-29T00:09:24;12.38;;;5.07;;
842;SDS011;407;48.884;9.126;2023-05-29T00:11:50;14.83;;;4.83;;
842;SDS011;407;48.884;9.126;2023-05-29T00:14:17;11.67;;;4.80;;
842;SDS011;407;48.884;9.126;2023-05-29T00:16:45;12.43;;;4.50;;
842;SDS011;407;48.884;9.126;2023-05-29T00:19:11;12.20;;;5.10;;
842;SDS011;407;48.884;9.126;2023-05-29T00:21:38;12.25;;;4.75;;
842;SDS011;407;48.884;9.126;2023-05-29T00:24:04;12.65;;;5.32;;
842;SDS011;407;48.884;9.126;2023-05-29T00:26:29;13.52;;;5.28;;
842;SDS011;407;48.884;9.126;2023-05-29T00:28:55;10.95;;;4.95;;
842;SDS011;407;48.884;9.126;2023-05-29T00:31:20;11.00;;;4.30;;
842;SDS011;407;48.884;9.126;2023-05-29T00:33:46;10.33;;;5.00;;
842;SDS011;407;48.884;9.126;2023-05-29T00:36:12;12.03;;;4.50;;
842;SDS011;407;48.884;9.126;2023-05-29T00:38:37;11.88;;;4.40;;
842;SDS011;407;48.884;9.126;2023-05-29T00:41:03;11.97;;;5.07;;
842;SDS011;407;48.884;9.126;2023-05-29T00:43:28;10.63;;;4.20;;
842;SDS011;407;48.884;9.126;2023-05-29T00:45:54;12.80;;;4.60;;
842;SDS011;407;48.884;9.126;2023-05-29T00:48:19;11.35;;;4.60;;
842;SDS011;407;48.884;9.126;2023-05-29T00:50:45;13.20;;;3.97;;
842;SDS011;407;48.884;9.126;2023-05-29T00:53:11;11.57;;;4.20;;
842;SDS011;407;48.884;9.126;2023-05-29T00:55:37;9.10;;;3.90;;
842;SDS011;407;48.884;9.126;2023-05-29T00:58:03;12.50;;;4.43;;
842;SDS011;407;48.884;9.126;2023-05-29T01:00:29;9.47;;;4.00;;
842;SDS011;407;48.884;9.126;2023-05-29T01:02:55;14.65;;;4.30;;
842;SDS011;407;48.884;9.126;2023-05-29T01:05:23;10.90;;;4.03;;
842;SDS011;407;48.884;9.126;2023-05-29T01:07:48;10.80;;;4.33;;
842;SDS011;407;48.884;9.126;2023-05-29T01:10:15;13.30;;;4.63;;
842;SDS011;407;48.884;9.126;2023-05-29T01:12:47;12.18;;;4.40;;
842;SDS011;407;48.884;9.126;2023-05-29T01:21:08;10.85;;;3.97;;
842;SDS011;407;48.884;9.126;2023-05-29T01:26:55;10.70;;;4.47;;
842;SDS011;407;48.884;9.126;2023-05-29T01:29:26;11.80;;;4.60;;
842;SDS011;407;48.884;9.126;2023-05-29T01:31:56;9.60;;;3.60;;
842;SDS011;407;48.884;9.126;2023-05-29T01:34:23;12.35;;;4.30;;
842;SDS011;407;48.884;9.126;2023-05-29T01:36:48;10.70;;;4.33;;
842;SDS011;407;48.884;9.126;2023-05-29T01:39:14;9.43;;;3.97;;
842;SDS011;407;48.884;9.126;2023-05-29T01:41:40;11.18;;;3.88;;
842;SDS011;407;48.884;9.126;2023-05-29T01:44:08;9.25;;;3.60;;
842;SDS011;407;48.884;9.126;2023-05-29T01:46:39;8.98;;;4.00;;
842;SDS011;407;48.884;9.126;2023-05-29T01:49:05;12.85;;;4.10;;
842;SDS011;407;48.884;9.126;2023-05-29T01:51:32;12.25;;;3.88;;
842;SDS011;407;48.884;9.126;2023-05-29T01:53:58;11.27;;;4.40;;
842;SDS011;407;48.884;9.126;2023-05-29T01:56:27;8.38;;;3.67;;
842;SDS011;407;48.884;9.126;2023-05-29T01:58:55;9.30;;;4.57;;
842;SDS011;407;48.884;9.126;2023-05-29T02:01:21;11.73;;;4.00;;
842;SDS011;407;48.884;9.126;2023-05-29T02:03:47;10.95;;;4.22;;
842;SDS011;407;48.884;9.126;2023-05-29T02:06:13;9.70;;;3.87;;
842;SDS011;407;48.884;9.126;2023-05-29T02:08:38;11.85;;;4.60;;
842;SDS011;407;48.884;9.126;2023-05-29T02:11:04;11.17;;;4.10;;
842;SDS011;407;48.884;9.126;2023-05-29T02:13:31;13.80;;;4.63;;
842;SDS011;407;48.884;9.126;2023-05-29T02:15:56;11.23;;;4.20;;
842;SDS011;407;48.884;9.126;2023-05-29T02:18:22;12.13;;;4.20;;
842;SDS011;407;48.884;9.126;2023-05-29T02:20:48;10.50;;;3.30;;
842;SDS011;407;48.884;9.126;2023-05-29T02:23:13;10.67;;;3.97;;
842;SDS011;407;48.884;9.126;2023-05-29T02:25:40;12.33;;;3.83;;
842;SDS011;407;48.884;9.126;2023-05-29T02:28:06;9.38;;;3.75;;
842;SDS011;407;48.884;9.126;2023-05-29T02:30:32;11.40;;;4.20;;
842;SDS011;407;48.884;9.126;2023-05-29T02:32:57;10.13;;;3.80;;
842;SDS011;407;48.884;9.126;2023-05-29T02:35:23;13.52;;;3.55;;
842;SDS011;407;48.884;9.126;2023-05-29T02:37:49;10.07;;;3.90;;
842;SDS011;407;48.884;9.126;2023-05-29T02:40:15;9.30;;;3.58;;
842;SDS011;407;48.884;9.126;2023-05-29T02:42:41;9.13;;;3.92;;
842;SDS011;407;48.884;9.126;2023-05-29T02:45:07;10.67;;;3.70;;
842;SDS011;407;48.884;9.126;2023-05-29T02:47:32;10.20;;;3.13;;
842;SDS011;407;48.884;9.126;2023-05-29T02:49:58;12.20;;;4.40;;
842;SDS011;407;48.884;9.126;2023-05-29T02:52:23;10.80;;;3.73;;
842;SDS011;407;48.884;9.126;2023-05-29T02:54:49;10.00;;;4.40;;
842;SDS011;407;48.884;9.126;2023-05-29T02:57:14;10.33;;;4.20;;
842;SDS011;407;48.884;9.126;2023-05-29T02:59:40;12.40;;;4.60;;
842;SDS011;407;48.884;9.126;2023-05-29T03:02:06;8.63;;;3.80;;
842;SDS011;407;48.884;9.126;2023-05-29T03:04:32;10.65;;;3.40;;
842;SDS011;407;48.884;9.126;2023-05-29T03:06:58;10.13;;;3.70;;
842;SDS011;407;48.884;9.126;2023-05-29T03:09:23;10.45;;;3.55;;
842;SDS011;407;48.884;9.126;2023-05-29T03:11:49;9.05;;;4.03;;
842;SDS011;407;48.884;9.126;2023-05-29T03:14:15;11.77;;;4.20;;
842;SDS011;407;48.884;9.126;2023-05-29T03:16:42;10.32;;;4.28;;
842;SDS011;407;48.884;9.126;2023-05-29T03:19:08;8.82;;;3.70;;
842;SDS011;407;48.884;9.126;2023-05-29T03:21:34;9.90;;;4.00;;
842;SDS011;407;48.884;9.126;2023-05-29T03:24:01;10.97;;;4.03;;
842;SDS011;407;48.884;9.126;2023-05-29T03:26:27;10.65;;;4.30;;
842;SDS011;407;48.884;9.126;2023-05-29T03:28:53;9.23;;;3.50;;
842;SDS011;407;48.884;9.126;2023-05-29T03:31:19;9.57;;;3.70;;
842;SDS011;407;48.884;9.126;2023-05-29T03:33:44;8.85;;;3.88;;
842;SDS011;407;48.884;9.126;2023-05-29T03:36:10;9.30;;;4.03;;
842;SDS011;407;48.884;9.126;2023-05-29T03:38:36;11.07;;;3.85;;
842;SDS011;407;48.884;9.126;2023-05-29T03:41:02;9.07;;;3.90;;
842;SDS011;407;48.884;9.126;2023-05-29T03:43:27;9.18;;;3.67;;
842;SDS011;407;48.884;9.126;2023-05-29T03:45:53;11.47;;;4.30;;
842;SDS011;407;48.884;9.126;2023-05-29T03:48:19;11.40;;;4.23;;
842;SDS011;407;48.884;9.126;2023-05-29T03:50:45;8.98;;;4.10;;
842;SDS011;407;48.884;9.126;2023-05-29T03:53:11;11.30;;;4.10;;
842;SDS011;407;48.884;9.126;2023-05-29T03:55:37;9.25;;;4.18;;
842;SDS011;407;48.884;9.126;2023-05-29T03:58:02;11.57;;;4.50;;
842;SDS011;407;48.884;9.126;2023-05-29T04:00:28;11.77;;;3.95;;
842;SDS011;407;48.884;9.126;2023-05-29T04:02:54;12.20;;;3.60;;
842;SDS011;407;48.884;9.126;2023-05-29T04:05:20;13.00;;;4.43;;
842;SDS011;407;48.884;9.126;2023-05-29T04:07:46;12.35;;;4.53;;
842;SDS011;407;48.884;9.126;2023-05-29T04:10:11;11.17;;;4.10;;
842;SDS011;407;48.884;9.126;2023-05-29T04:12:37;12.20;;;4.00;;
842;SDS011;407;48.884;9.126;2023-05-29T04:15:03;13.38;;;4.28;;
842;SDS011;407;48.884;9.126;2023-05-29T04:17:29;10.77;;;4.43;;
842;SDS011;407;48.884;9.126;2023-05-29T04:19:54;13.30;;;4.50;;
842;SDS011;407;48.884;9.126;2023-05-29T04:22:20;12.13;;;4.30;;
842;SDS011;407;48.884;9.126;2023-05-29T04:24:46;12.38;;;4.80;;
842;SDS011;407;48.884;9.126;2023-05-29T04:27:11;15.67;;;5.20;;
842;SDS011;407;48.884;9.126;2023-05-29T04:29:40;12.00;;;4.47;;
842;SDS011;407;48.884;9.126;2023-05-29T04:32:08;11.73;;;3.80;;
842;SDS011;407;48.884;9.126;2023-05-29T04:34:36;11.43;;;4.05;;
842;SDS011;407;48.884;9.126;2023-05-29T04:37:04;9.77;;;3.65;;
842;SDS011;407;48.884;9.126;2023-05-29T04:39:30;9.98;;;4.07;;
842;SDS011;407;48.884;9.126;2023-05-29T04:41:56;13.13;;;4.50;;
842;SDS011;407;48.884;9.126;2023-05-29T04:44:24;10.30;;;4.30;;
842;SDS011;407;48.884;9.126;2023-05-29T04:46:51;9.10;;;3.90;;
842;SDS011;407;48.884;9.126;2023-05-29T04:49:17;10.73;;;3.70;;
842;SDS011;407;48.884;9.126;2023-05-29T04:51:43;10.93;;;4.10;;
842;SDS011;407;48.884;9.126;2023-05-29T04:54:11;9.73;;;4.20;;
842;SDS011;407;48.884;9.126;2023-05-29T04:56:37;12.27;;;3.88;;
842;SDS011;407;48.884;9.126;2023-05-29T04:59:05;9.63;;;3.97;;
842;SDS011;407;48.884;9.126;2023-05-29T05:01:31;10.45;;;3.90;;
842;SDS011;407;48.884;9.126;2023-05-29T05:03:58;9.70;;;3.85;;
842;SDS011;407;48.884;9.126;2023-05-29T05:06:24;11.10;;;3.70;;
842;SDS011;407;48.884;9.126;2023-05-29T05:08:51;12.82;;;3.30;;
842;SDS011;407;48.884;9.126;2023-05-29T05:11:21;9.30;;;3.72;;
842;SDS011;407;48.884;9.126;2023-05-29T05:13:48;8.93;;;3.40;;
842;SDS011;407;48.884;9.126;2023-05-29T05:16:14;10.13;;;3.75;;
842;SDS011;407;48.884;9.126;2023-05-29T05:18:39;9.33;;;3.53;;
842;SDS011;407;48.884;9.126;2023-05-29T05:21:05;8.93;;;3.50;;
842;SDS011;407;48.884;9.126;2023-05-29T05:23:31;9.73;;;4.00;;
842;SDS011;407;48.884;9.126;2023-05-29T05:25:57;9.00;;;4.45;;
842;SDS011;407;48.884;9.126;2023-05-29T05:28:22;10.43;;;5.10;;
842;SDS011;407;48.884;9.126;2023-05-29T05:30:48;10.30;;;5.80;;
842;SDS011;407;48.884;9.126;2023-05-29T05:33:13;11.40;;;5.70;;
842;SDS011;407;48.884;9.126;2023-05-29T05:35:39;10.43;;;5.60;;
842;SDS011;407;48.884;9.126;2023-05-29T05:38:05;9.57;;;5.80;;
842;SDS011;407;48.884;9.126;2023-05-29T05:40:31;8.37;;;5.70;;
842;SDS011;407;48.884;9.126;2023-05-29T05:42:56;10.83;;;5.50;;
842;SDS011;407;48.884;9.126;2023-05-29T05:45:22;9.27;;;5.90;;
842;SDS011;407;48.884;9.126;2023-05-29T05:47:47;11.80;;;6.80;;
842;SDS011;407;48.884;9.126;2023-05-29T05:50:13;9.45;;;6.55;;
842;SDS011;407;48.884;9.126;2023-05-29T05:52:38;9.35;;;5.97;;
842;SDS011;407;48.884;9.126;2023-05-29T05:55:04;9.93;;;6.40;;
842;SDS011;407;48.884;9.126;2023-05-29T05:57:30;11.10;;;6.25;;
842;SDS011;407;48.884;9.126;2023-05-29T05:59:58;11.95;;;6.35;;
842;SDS011;407;48.884;9.126;2023-05-29T06:02:37;10.73;;;6.20;;
842;SDS011;407;48.884;9.126;2023-05-29T06:05:07;11.30;;;6.93;;
842;SDS011;407;48.884;9.126;2023-05-29T06:07:34;9.73;;;6.17;;
842;SDS011;407;48.884;9.126;2023-05-29T06:10:00;9.80;;;5.90;;
842;SDS011;407;48.884;9.126;2023-05-29T06:12:26;10.63;;;5.95;;
842;SDS011;407;48.884;9.126;2023-05-29T06:14:52;10.02;;;6.78;;
842;SDS011;407;48.884;9.126;2023-05-29T06:17:18;11.30;;;7.10;;
842;SDS011;407;48.884;9.126;2023-05-29T06:19:43;11.55;;;8.98;;
842;SDS011;407;48.884;9.126;2023-05-29T06:22:09;12.05;;;7.63;;
842;SDS011;407;48.884;9.126;2023-05-29T06:24:34;10.77;;;6.90;;
842;SDS011;407;48.884;9.126;2023-05-29T06:27:00;10.53;;;6.53;;
842;SDS011;407;48.884;9.126;2023-05-29T06:29:26;10.23;;;8.40;;
842;SDS011;407;48.884;9.126;2023-05-29T06:31:52;9.80;;;8.47;;
842;SDS011;407;48.884;9.126;2023-05-29T06:34:17;10.03;;;6.37;;
842;SDS011;407;48.884;9.126;2023-05-29T06:36:43;9.30;;;3.35;;
842;SDS011;407;48.884;9.126;2023-05-29T06:39:09;9.17;;;5.30;;
842;SDS011;407;48.884;9.126;2023-05-29T06:41:35;9.43;;;2.95;;
842;SDS011;407;48.884;9.126;2023-05-29T06:44:00;10.20;;;3.80;;
842;SDS011;407;48.884;9.126;2023-05-29T06:46:26;8.68;;;3.40;;
842;SDS011;407;48.884;9.126;2023-05-29T06:48:52;9.18;;;3.40;;
842;SDS011;407;48.884;9.126;2023-05-29T06:51:17;9.97;;;3.40;;
842;SDS011;407;48.884;9.126;2023-05-29T06:53:43;8.95;;;2.92;;
842;SDS011;407;48.884;9.126;2023-05-29T06:56:09;10.65;;;4.28;;
842;SDS011;407;48.884;9.126;2023-05-29T06:58:34;8.40;;;3.53;;
842;SDS011;407;48.884;9.126;2023-05-29T07:01:00;8.60;;;3.28;;
842;SDS011;407;48.884;9.126;2023-05-29T07:03:26;8.60;;;3.40;;
842;SDS011;407;48.884;9.126;2023-05-29T07:05:52;8.82;;;6.93;;
842;SDS011;407;48.884;9.126;2023-05-29T07:08:18;10.27;;;7.57;;
842;SDS011;407;48.884;9.126;2023-05-29T07:10:43;8.53;;;6.80;;
842;SDS011;407;48.884;9.126;2023-05-29T07:13:14;9.07;;;6.80;;
842;SDS011;407;48.884;9.126;2023-05-29T07:15:40;9.82;;;7.28;;
842;SDS011;407;48.884;9.126;2023-05-29T07:18:06;10.83;;;7.13;;
842;SDS011;407;48.884;9.126;2023-05-29T07:20:31;11.30;;;8.30;;
842;SDS011;407;48.884;9.126;2023-05-29T07:22:57;10.47;;;6.27;;
842;SDS011;407;48.884;9.126;2023-05-29T07:25:22;9.10;;;4.77;;
842;SDS011;407;48.884;9.126;2023-05-29T07:27:48;10.00;;;6.95;;
842;SDS011;407;48.884;9.126;2023-05-29T07:30:14;9.93;;;7.57;;
842;SDS011;407;48.884;9.126;2023-05-29T07:32:40;11.83;;;7.47;;
842;SDS011;407;48.884;9.126;2023-05-29T07:35:06;9.23;;;4.40;;
842;SDS011;407;48.884;9.126;2023-05-29T07:37:32;11.15;;;8.18;;
842;SDS011;407;48.884;9.126;2023-05-29T07:39:59;8.63;;;5.10;;
842;SDS011;407;48.884;9.126;2023-05-29T07:42:24;9.85;;;6.90;;
842;SDS011;407;48.884;9.126;2023-05-29T07:44:50;9.60;;;4.23;;
842;SDS011;407;48.884;9.126;2023-05-29T07:47:15;8.50;;;3.40;;
842;SDS011;407;48.884;9.126;2023-05-29T07:49:41;9.50;;;4.40;;
842;SDS011;407;48.884;9.126;2023-05-29T07:52:07;11.38;;;4.10;;
842;SDS011;407;48.884;9.126;2023-05-29T07:54:32;10.63;;;5.72;;
842;SDS011;407;48.884;9.126;2023-05-29T07:56:59;11.40;;;9.47;;
842;SDS011;407;48.884;9.126;2023-05-29T07:59:25;12.27;;;7.27;;
842;SDS011;407;48.884;9.126;2023-05-29T08:01:51;8.63;;;5.63;;
842;SDS011;407;48.884;9.126;2023-05-29T08:04:17;9.90;;;3.10;;
842;SDS011;407;48.884;9.126;2023-05-29T08:06:42;10.47;;;3.70;;
842;SDS011;407;48.884;9.126;2023-05-29T08:09:08;9.82;;;4.00;;
842;SDS011;407;48.884;9.126;2023-05-29T08:11:35;7.47;;;3.28;;
842;SDS011;407;48.884;9.126;2023-05-29T08:14:01;8.55;;;3.50;;
842;SDS011;407;48.884;9.126;2023-05-29T08:16:27;7.75;;;3.20;;
842;SDS011;407;48.884;9.126;2023-05-29T08:18:52;8.82;;;3.95;;
842;SDS011;407;48.884;9.126;2023-05-29T08:21:18;9.67;;;3.80;;
842;SDS011;407;48.884;9.126;2023-05-29T08:23:44;8.30;;;3.15;;
842;SDS011;407;48.884;9.126;2023-05-29T08:26:10;9.10;;;3.80;;
842;SDS011;407;48.884;9.126;2023-05-29T08:28:35;10.87;;;4.93;;
842;SDS011;407;48.884;9.126;2023-05-29T08:31:01;9.30;;;4.28;;
842;SDS011;407;48.884;9.126;2023-05-29T08:33:28;9.05;;;5.10;;
842;SDS011;407;48.884;9.126;2023-05-29T08:35:56;9.55;;;4.70;;
842;SDS011;407;48.884;9.126;2023-05-29T08:38:22;8.55;;;6.07;;
842;SDS011;407;48.884;9.126;2023-05-29T08:40:50;11.80;;;8.02;;
842;SDS011;407;48.884;9.126;2023-05-29T08:43:18;9.82;;;7.07;;
842;SDS011;407;48.884;9.126;2023-05-29T08:45:46;9.38;;;7.20;;
842;SDS011;407;48.884;9.126;2023-05-29T08:48:16;10.63;;;7.23;;
842;SDS011;407;48.884;9.126;2023-05-29T08:50:44;9.98;;;7.40;;
842;SDS011;407;48.884;9.126;2023-05-29T08:53:12;9.88;;;7.70;;
842;SDS011;407;48.884;9.126;2023-05-29T08:55:38;10.10;;;8.15;;
842;SDS011;407;48.884;9.126;2023-05-29T08:58:03;10.50;;;7.20;;
842;SDS011;407;48.884;9.126;2023-05-29T09:00:30;8.63;;;3.53;;
842;SDS011;407;48.884;9.126;2023-05-29T09:02:56;7.90;;;2.90;;
842;SDS011;407;48.884;9.126;2023-05-29T09:05:24;11.80;;;3.78;;
842;SDS011;407;48.884;9.126;2023-05-29T09:07:52;9.07;;;3.70;;
842;SDS011;407;48.884;9.126;2023-05-29T09:10:18;11.23;;;3.33;;
842;SDS011;407;48.884;9.126;2023-05-29T09:12:45;9.15;;;7.05;;
842;SDS011;407;48.884;9.126;2023-05-29T09:15:18;9.68;;;5.90;;
842;SDS011;407;48.884;9.126;2023-05-29T09:17:57;10.13;;;5.97;;
842;SDS011;407;48.884;9.126;2023-05-29T09:20:23;11.17;;;4.40;;
842;SDS011;407;48.884;9.126;2023-05-29T09:25:26;8.82;;;3.70;;
842;SDS011;407;48.884;9.126;2023-05-29T09:30:30;9.48;;;5.82;;
842;SDS011;407;48.884;9.126;2023-05-29T09:32:58;9.52;;;3.10;;
842;SDS011;407;48.884;9.126;2023-05-29T09:37:59;10.68;;;6.95;;
842;SDS011;407;48.884;9.126;2023-05-29T09:40:26;8.32;;;4.68;;
842;SDS011;407;48.884;9.126;2023-05-29T09:42:54;10.05;;;3.50;;
842;SDS011;407;48.884;9.126;2023-05-29T09:45:21;9.43;;;5.82;;
842;SDS011;407;48.884;9.126;2023-05-29T09:47:47;10.65;;;6.32;;
842;SDS011;407;48.884;9.126;2023-05-29T09:50:19;9.57;;;6.05;;
842;SDS011;407;48.884;9.126;2023-05-29T09:52:48;10.13;;;3.20;;
842;SDS011;407;48.884;9.126;2023-05-29T09:55:20;10.95;;;6.13;;
842;SDS011;407;48.884;9.126;2023-05-29T09:57:46;9.47;;;5.90;;
842;SDS011;407;48.884;9.126;2023-05-29T10:00:13;8.38;;;5.97;;
842;SDS011;407;48.884;9.126;2023-05-29T10:02:41;10.70;;;6.30;;
842;SDS011;407;48.884;9.126;2023-05-29T10:05:07;8.30;;;5.37;;
842;SDS011;407;48.884;9.126;2023-05-29T10:07:34;8.73;;;5.82;;
842;SDS011;407;48.884;9.126;2023-05-29T10:10:02;10.13;;;5.82;;
842;SDS011;407;48.884;9.126;2023-05-29T10:12:31;10.80;;;5.70;;
842;SDS011;407;48.884;9.126;2023-05-29T10:14:59;11.48;;;6.07;;
842;SDS011;407;48.884;9.126;2023-05-29T10:17:28;9.50;;;6.13;;
842;SDS011;407;48.884;9.126;2023-05-29T10:19:58;9.00;;;5.45;;
842;SDS011;407;48.884;9.126;2023-05-29T10:22:26;9.60;;;6.15;;
842;SDS011;407;48.884;9.126;2023-05-29T10:24:53;11.15;;;5.82;;
842;SDS011;407;48.884;9.126;2023-05-29T10:27:21;9.90;;;5.78;;
842;SDS011;407;48.884;9.126;2023-05-29T10:29:48;11.38;;;6.13;;
842;SDS011;407;48.884;9.126;2023-05-29T10:32:21;9.05;;;6.13;;
842;SDS011;407;48.884;9.126;2023-05-29T10:37:47;10.77;;;7.53;;
842;SDS011;407;48.884;9.126;2023-05-29T10:40:23;10.32;;;6.90;;
842;SDS011;407;48.884;9.126;2023-05-29T10:42:50;11.40;;;7.40;;
842;SDS011;407;48.884;9.126;2023-05-29T10:50:44;12.15;;;6.57;;
842;SDS011;407;48.884;9.126;2023-05-29T10:53:15;8.80;;;6.50;;
842;SDS011;407;48.884;9.126;2023-05-29T10:55:42;12.23;;;7.10;;
842;SDS011;407;48.884;9.126;2023-05-29T10:58:14;9.75;;;6.30;;
842;SDS011;407;48.884;9.126;2023-05-29T11:00:43;9.20;;;6.60;;
842;SDS011;407;48.884;9.126;2023-05-29T11:03:19;8.57;;;6.20;;
842;SDS011;407;48.884;9.126;2023-05-29T11:05:59;10.35;;;6.70;;
842;SDS011;407;48.884;9.126;2023-05-29T11:08:46;10.70;;;6.93;;
842;SDS011;407;48.884;9.126;2023-05-29T11:11:13;7.72;;;5.90;;
842;SDS011;407;48.884;9.126;2023-05-29T11:13:40;8.38;;;6.20;;
842;SDS011;407;48.884;9.126;2023-05-29T11:18:51;10.60;;;6.25;;
842;SDS011;407;48.884;9.126;2023-05-29T11:21:31;10.55;;;6.60;;
842;SDS011;407;48.884;9.126;2023-05-29T11:23:59;10.45;;;6.10;;
842;SDS011;407;48.884;9.126;2023-05-29T11:26:28;8.27;;;6.10;;
842;SDS011;407;48.884;9.126;2023-05-29T11:28:58;9.38;;;6.63;;
842;SDS011;407;48.884;9.126;2023-05-29T11:31:32;8.77;;;6.10;;
842;SDS011;407;48.884;9.126;2023-05-29T11:33:59;9.55;;;6.28;;
842;SDS011;407;48.884;9.126;2023-05-29T11:36:27;10.48;;;5.90;;
842;SDS011;407;48.884;9.126;2023-05-29T11:38:53;8.80;;;5.93;;
842;SDS011;407;48.884;9.126;2023-05-29T11:41:19;8.13;;;5.60;;
842;SDS011;407;48.884;9.126;2023-05-29T11:43:47;10.30;;;6.03;;
842;SDS011;407;48.884;9.126;2023-05-29T11:46:21;9.80;;;6.40;;
842;SDS011;407;48.884;9.126;2023-05-29T11:48:47;9.00;;;6.40;;
842;SDS011;407;48.884;9.126;2023-05-29T11:51:13;8.60;;;6.10;;
842;SDS011;407;48.884;9.126;2023-05-29T11:53:42;8.68;;;6.30;;
842;SDS011;407;48.884;9.126;2023-05-29T11:56:11;9.55;;;6.63;;
842;SDS011;407;48.884;9.126;2023-05-29T11:58:38;8.60;;;6.20;;
842;SDS011;407;48.884;9.126;2023-05-29T12:01:07;7.70;;;6.05;;
842;SDS011;407;48.884;9.126;2023-05-29T12:03:39;11.70;;;6.43;;
842;SDS011;407;48.884;9.126;2023-05-29T12:06:06;9.23;;;6.72;;
842;SDS011;407;48.884;9.126;2023-05-29T12:08:33;9.55;;;6.20;;
842;SDS011;407;48.884;9.126;2023-05-29T12:11:00;8.63;;;6.50;;
842;SDS011;407;48.884;9.126;2023-05-29T12:13:27;8.43;;;6.07;;
842;SDS011;407;48.884;9.126;2023-05-29T12:15:54;9.07;;;6.22;;
842;SDS011;407;48.884;9.126;2023-05-29T12:18:23;8.48;;;6.50;;
842;SDS011;407;48.884;9.126;2023-05-29T12:20:50;9.03;;;6.37;;
842;SDS011;407;48.884;9.126;2023-05-29T12:23:16;7.87;;;5.80;;
842;SDS011;407;48.884;9.126;2023-05-29T12:25:45;10.52;;;6.30;;
842;SDS011;407;48.884;9.126;2023-05-29T12:28:11;9.18;;;5.85;;
842;SDS011;407;48.884;9.126;2023-05-29T12:30:41;8.63;;;5.80;;
842;SDS011;407;48.884;9.126;2023-05-29T12:33:08;10.20;;;7.57;;
842;SDS011;407;48.884;9.126;2023-05-29T12:35:34;10.23;;;6.60;;
842;SDS011;407;48.884;9.126;2023-05-29T12:38:00;8.77;;;6.00;;
842;SDS011;407;48.884;9.126;2023-05-29T12:40:29;10.38;;;6.20;;
842;SDS011;407;48.884;9.126;2023-05-29T12:43:03;8.50;;;6.10;;
842;SDS011;407;48.884;9.126;2023-05-29T12:45:35;7.88;;;6.00;;
842;SDS011;407;48.884;9.126;2023-05-29T12:48:05;8.82;;;6.45;;
842;SDS011;407;48.884;9.126;2023-05-29T12:50:32;10.00;;;6.60;;
842;SDS011;407;48.884;9.126;2023-05-29T12:53:04;10.93;;;6.50;;
842;SDS011;407;48.884;9.126;2023-05-29T12:55:31;8.13;;;6.70;;
842;SDS011;407;48.884;9.126;2023-05-29T12:57:58;13.27;;;6.47;;
842;SDS011;407;48.884;9.126;2023-05-29T13:00:24;8.82;;;6.30;;
842;SDS011;407;48.884;9.126;2023-05-29T13:02:50;10.53;;;6.30;;
842;SDS011;407;48.884;9.126;2023-05-29T13:05:16;8.32;;;6.35;;
842;SDS011;407;48.884;9.126;2023-05-29T13:07:43;7.77;;;6.43;;
842;SDS011;407;48.884;9.126;2023-05-29T13:10:10;9.55;;;6.45;;
842;SDS011;407;48.884;9.126;2023-05-29T13:12:36;8.27;;;6.40;;
842;SDS011;407;48.884;9.126;2023-05-29T13:15:02;9.25;;;6.50;;
842;SDS011;407;48.884;9.126;2023-05-29T13:17:28;10.75;;;6.40;;
842;SDS011;407;48.884;9.126;2023-05-29T13:19:54;8.83;;;6.23;;
842;SDS011;407;48.884;9.126;2023-05-29T13:22:20;9.02;;;6.20;;
842;SDS011;407;48.884;9.126;2023-05-29T13:24:45;14.00;;;6.60;;
842;SDS011;407;48.884;9.126;2023-05-29T13:27:11;10.17;;;7.00;;
842;SDS011;407;48.884;9.126;2023-05-29T13:29:41;9.48;;;7.00;;
842;SDS011;407;48.884;9.126;2023-05-29T13:32:07;10.40;;;6.40;;
842;SDS011;407;48.884;9.126;2023-05-29T13:34:33;8.93;;;6.33;;
842;SDS011;407;48.884;9.126;2023-05-29T13:36:58;9.50;;;7.10;;
842;SDS011;407;48.884;9.126;2023-05-29T13:39:27;9.10;;;6.75;;
842;SDS011;407;48.884;9.126;2023-05-29T13:41:53;8.20;;;7.00;;
842;SDS011;407;48.884;9.126;2023-05-29T13:44:18;14.00;;;7.05;;
842;SDS011;407;48.884;9.126;2023-05-29T13:46:44;9.00;;;6.80;;
842;SDS011;407;48.884;9.126;2023-05-29T13:49:09;7.93;;;6.82;;
842;SDS011;407;48.884;9.126;2023-05-29T13:51:35;10.82;;;7.20;;
842;SDS011;407;48.884;9.126;2023-05-29T13:54:01;9.80;;;7.87;;
842;SDS011;407;48.884;9.126;2023-05-29T13:56:28;9.52;;;6.80;;
842;SDS011;407;48.884;9.126;2023-05-29T13:58:54;12.95;;;6.75;;
842;SDS011;407;48.884;9.126;2023-05-29T14:01:20;9.10;;;6.60;;
842;SDS011;407;48.884;9.126;2023-05-29T14:03:46;9.27;;;6.22;;
842;SDS011;407;48.884;9.126;2023-05-29T14:06:11;13.80;;;6.70;;
842;SDS011;407;48.884;9.126;2023-05-29T14:08:37;9.40;;;6.10;;
842;SDS011;407;48.884;9.126;2023-05-29T14:11:03;8.50;;;6.40;;
842;SDS011;407;48.884;9.126;2023-05-29T14:13:28;11.77;;;6.30;;
842;SDS011;407;48.884;9.126;2023-05-29T14:15:54;9.05;;;6.00;;
842;SDS011;407;48.884;9.126;2023-05-29T14:18:22;8.18;;;6.25;;
842;SDS011;407;48.884;9.126;2023-05-29T14:20:48;9.80;;;6.35;;
842;SDS011;407;48.884;9.126;2023-05-29T14:23:14;9.15;;;6.03;;
842;SDS011;407;48.884;9.126;2023-05-29T14:25:43;9.60;;;6.45;;
842;SDS011;407;48.884;9.126;2023-05-29T14:28:08;9.70;;;6.50;;
842;SDS011;407;48.884;9.126;2023-05-29T14:30:35;7.90;;;6.10;;
842;SDS011;407;48.884;9.126;2023-05-29T14:33:01;8.55;;;6.55;;
842;SDS011;407;48.884;9.126;2023-05-29T14:35:27;9.38;;;6.40;;
842;SDS011;407;48.884;9.126;2023-05-29T14:37:53;12.10;;;5.77;;
842;SDS011;407;48.884;9.126;2023-05-29T14:40:18;9.83;;;6.60;;
842;SDS011;407;48.884;9.126;2023-05-29T14:42:44;8.30;;;5.00;;
842;SDS011;407;48.884;9.126;2023-05-29T14:45:09;8.40;;;6.00;;
842;SDS011;407;48.884;9.126;2023-05-29T14:47:35;8.60;;;5.65;;
842;SDS011;407;48.884;9.126;2023-05-29T14:50:01;8.43;;;5.43;;
842;SDS011;407;48.884;9.126;2023-05-29T14:52:26;11.05;;;5.93;;
842;SDS011;407;48.884;9.126;2023-05-29T14:54:52;8.18;;;5.50;;
842;SDS011;407;48.884;9.126;2023-05-29T14:57:17;9.80;;;5.63;;
842;SDS011;407;48.884;9.126;2023-05-29T14:59:43;11.13;;;5.53;;
842;SDS011;407;48.884;9.126;2023-05-29T15:02:09;9.80;;;5.80;;
842;SDS011;407;48.884;9.126;2023-05-29T15:04:35;7.75;;;5.72;;
842;SDS011;407;48.884;9.126;2023-05-29T15:07:01;13.07;;;6.53;;
842;SDS011;407;48.884;9.126;2023-05-29T15:09:26;8.00;;;5.60;;
842;SDS011;407;48.884;9.126;2023-05-29T15:11:52;7.37;;;5.53;;
842;SDS011;407;48.884;9.126;2023-05-29T15:14:17;8.20;;;5.80;;
842;SDS011;407;48.884;9.126;2023-05-29T15:16:44;8.83;;;6.17;;
842;SDS011;407;48.884;9.126;2023-05-29T15:19:10;9.03;;;6.23;;
842;SDS011;407;48.884;9.126;2023-05-29T15:21:36;8.00;;;5.77;;
842;SDS011;407;48.884;9.126;2023-05-29T15:24:01;12.85;;;6.75;;
842;SDS011;407;48.884;9.126;2023-05-29T15:26:27;9.35;;;5.88;;
842;SDS011;407;48.884;9.126;2023-05-29T15:29:02;7.60;;;5.60;;
842;SDS011;407;48.884;9.126;2023-05-29T15:31:30;8.48;;;5.40;;
842;SDS011;407;48.884;9.126;2023-05-29T15:33:55;7.70;;;5.47;;
842;SDS011;407;48.884;9.126;2023-05-29T15:38:49;15.10;;;6.15;;
842;SDS011;407;48.884;9.126;2023-05-29T15:41:15;8.90;;;5.87;;
842;SDS011;407;48.884;9.126;2023-05-29T15:43:41;8.70;;;6.10;;
842;SDS011;407;48.884;9.126;2023-05-29T15:46:06;10.03;;;5.40;;
842;SDS011;407;48.884;9.126;2023-05-29T15:48:33;7.10;;;5.70;;
842;SDS011;407;48.884;9.126;2023-05-29T15:50:59;8.25;;;5.82;;
842;SDS011;407;48.884;9.126;2023-05-29T15:53:24;8.30;;;5.90;;
842;SDS011;407;48.884;9.126;2023-05-29T15:55:50;7.70;;;5.90;;
842;SDS011;407;48.884;9.126;2023-05-29T15:58:16;7.80;;;5.63;;
842;SDS011;407;48.884;9.126;2023-05-29T16:00:41;7.63;;;5.63;;
842;SDS011;407;48.884;9.126;2023-05-29T16:03:07;8.20;;;6.07;;
842;SDS011;407;48.884;9.126;2023-05-29T16:05:34;8.23;;;5.50;;